createdAt,value
2022-11-14T00:00:39.296Z,1020.9
2022-11-14T00:01:55.758Z,1020.9
2022-11-14T00:03:11.942Z,1020.9
2022-11-14T00:04:26.887Z,1020.9
2022-11-14T00:05:43.344Z,1020.9
2022-11-14T00:06:59.535Z,1020.9
2022-11-14T00:08:15.707Z,1020.9
2022-11-14T00:09:31.906Z,1020.9
2022-11-14T00:10:47.836Z,1020.8
2022-11-14T00:12:04.030Z,1020.8
2022-11-14T00:13:20.203Z,1020.8
2022-11-14T00:14:36.654Z,1020.8
2022-11-14T00:15:52.850Z,1020.8
2022-11-14T00:17:08.775Z,1020.8
2022-11-14T00:18:25.224Z,1020.8
2022-11-14T00:19:41.419Z,1020.8
2022-11-14T00:20:56.623Z,1020.8
2022-11-14T00:22:12.816Z,1020.8
2022-11-14T00:23:28.736Z,1020.8
2022-11-14T00:24:45.195Z,1020.8
2022-11-14T00:26:01.374Z,1020.8
2022-11-14T00:27:17.560Z,1020.8
2022-11-14T00:28:33.750Z,1020.8
2022-11-14T00:29:49.948Z,1020.8
2022-11-14T00:31:06.136Z,1020.8
2022-11-14T00:32:22.324Z,1020.7
2022-11-14T00:33:38.238Z,1020.7
2022-11-14T00:34:54.437Z,1020.6
2022-11-14T00:36:10.627Z,1020.6
2022-11-14T00:37:26.104Z,1020.6
2022-11-14T00:38:42.278Z,1020.6
2022-11-14T00:39:58.467Z,1020.7
2022-11-14T00:41:14.653Z,1020.7
2022-11-14T00:42:30.592Z,1020.6
2022-11-14T00:43:46.772Z,1020.6
2022-11-14T00:45:03.226Z,1020.6
2022-11-14T00:46:19.422Z,1020.6
2022-11-14T00:47:35.342Z,1020.6
2022-11-14T00:48:51.793Z,1020.5
2022-11-14T00:50:07.986Z,1020.5
2022-11-14T00:51:24.173Z,1020.5
2022-11-14T00:52:40.359Z,1020.5
2022-11-14T00:53:55.573Z,1020.5
2022-11-14T00:55:11.754Z,1020.5
2022-11-14T00:56:27.942Z,1020.5
2022-11-14T00:57:43.863Z,1020.4
2022-11-14T00:59:00.318Z,1020.5
2022-11-14T01:00:16.522Z,1020.4
2022-11-14T01:01:32.431Z,1020.4
2022-11-14T01:02:48.889Z,1020.4
2022-11-14T01:04:05.090Z,1020.3
2022-11-14T01:05:21.001Z,1020.3
2022-11-14T01:06:37.450Z,1020.3
2022-11-14T01:07:53.380Z,1020.3
2022-11-14T01:09:09.562Z,1020.3
2022-11-14T01:10:25.035Z,1020.3
2022-11-14T01:11:40.951Z,1020.2
2022-11-14T01:12:57.427Z,1020.3
2022-11-14T01:14:13.337Z,1020.3
2022-11-14T01:15:29.807Z,1020.2
2022-11-14T01:16:45.722Z,1020.2
2022-11-14T01:18:02.183Z,1020.3
2022-11-14T01:19:18.358Z,1020.2
2022-11-14T01:20:34.289Z,1020.2
2022-11-14T01:21:50.475Z,1020.1
2022-11-14T01:23:06.924Z,1020.1
2022-11-14T01:24:23.133Z,1020.1
2022-11-14T01:25:39.038Z,1020
2022-11-14T01:26:54.245Z,1020
2022-11-14T01:28:10.716Z,1020.1
2022-11-14T01:29:26.895Z,1020.1
2022-11-14T01:30:43.084Z,1020.1
2022-11-14T01:31:59.280Z,1020.1
2022-11-14T01:33:15.465Z,1020.1
2022-11-14T01:34:30.682Z,1020.1
2022-11-14T01:35:46.587Z,1020.1
2022-11-14T01:37:03.059Z,1020.1
2022-11-14T01:38:19.245Z,1020
2022-11-14T01:39:35.148Z,1020
2022-11-14T01:40:51.628Z,1020
2022-11-14T01:42:07.806Z,1019.9
2022-11-14T01:43:23.722Z,1019.9
2022-11-14T01:44:40.184Z,1019.9
2022-11-14T01:45:56.373Z,1019.9
2022-11-14T01:47:12.572Z,1019.9
2022-11-14T01:48:28.463Z,1019.9
2022-11-14T01:49:44.656Z,1019.9
2022-11-14T01:50:59.877Z,1019.9
2022-11-14T01:52:16.045Z,1019.8
2022-11-14T01:53:32.522Z,1019.8
2022-11-14T01:54:48.714Z,1019.8
2022-11-14T01:56:04.913Z,1019.8
2022-11-14T01:57:21.102Z,1019.8
2022-11-14T01:58:37.277Z,1019.8
2022-11-14T01:59:53.471Z,1019.7
2022-11-14T02:01:09.663Z,1019.8
2022-11-14T02:02:25.840Z,1019.8
2022-11-14T02:03:42.033Z,1019.8
2022-11-14T02:04:57.934Z,1019.7
2022-11-14T02:06:14.139Z,1019.7
2022-11-14T02:07:29.636Z,1019.7
2022-11-14T02:08:45.810Z,1019.7
2022-11-14T02:10:02.007Z,1019.7
2022-11-14T02:11:18.181Z,1019.6
2022-11-14T02:12:34.389Z,1019.6
2022-11-14T02:13:50.271Z,1019.5
2022-11-14T02:15:06.763Z,1019.5
2022-11-14T02:16:22.954Z,1019.6
2022-11-14T02:17:39.143Z,1019.5
2022-11-14T02:18:55.327Z,1019.5
2022-11-14T02:20:11.514Z,1019.4
2022-11-14T02:21:27.417Z,1019.4
2022-11-14T02:22:43.886Z,1019.5
2022-11-14T02:23:59.100Z,1019.5
2022-11-14T02:25:15.289Z,1019.5
2022-11-14T02:26:31.484Z,1019.4
2022-11-14T02:27:47.670Z,1019.5
2022-11-14T02:29:03.570Z,1019.5
2022-11-14T02:30:19.747Z,1019.4
2022-11-14T02:31:36.242Z,1019.4
2022-11-14T02:32:52.419Z,1019.4
2022-11-14T02:34:08.603Z,1019.4
2022-11-14T02:35:24.803Z,1019.4
2022-11-14T02:36:40.694Z,1019.3
2022-11-14T02:37:57.184Z,1019.3
2022-11-14T02:39:13.361Z,1019.3
2022-11-14T02:40:28.563Z,1019.3
2022-11-14T02:41:44.772Z,1019.2
2022-11-14T02:43:00.957Z,1019.2
2022-11-14T02:44:16.855Z,1019.1
2022-11-14T02:45:33.332Z,1019.1
2022-11-14T02:46:49.509Z,1019.1
2022-11-14T02:48:05.705Z,1019.1
2022-11-14T02:49:21.602Z,1019.2
2022-11-14T02:50:38.079Z,1019.1
2022-11-14T02:51:54.266Z,1019.1
2022-11-14T02:53:10.157Z,1019.1
2022-11-14T02:54:26.346Z,1019
2022-11-14T02:55:42.553Z,1019.1
2022-11-14T02:56:57.744Z,1019.1
2022-11-14T02:58:14.228Z,1019.1
2022-11-14T02:59:30.131Z,1019.1
2022-11-14T03:00:46.611Z,1019.1
2022-11-14T03:02:02.813Z,1019
2022-11-14T03:03:18.688Z,1019.1
2022-11-14T03:04:34.888Z,1019
2022-11-14T03:05:51.365Z,1019
2022-11-14T03:07:07.255Z,1019
2022-11-14T03:08:23.452Z,1019
2022-11-14T03:09:39.939Z,1018.9
2022-11-14T03:10:56.118Z,1018.9
2022-11-14T03:12:12.323Z,1018.9
2022-11-14T03:13:27.519Z,1018.9
2022-11-14T03:14:43.406Z,1019
2022-11-14T03:15:59.907Z,1018.9
2022-11-14T03:17:15.781Z,1018.9
2022-11-14T03:18:32.271Z,1018.9
2022-11-14T03:19:48.162Z,1018.9
2022-11-14T03:21:04.350Z,1018.9
2022-11-14T03:22:20.846Z,1018.9
2022-11-14T03:23:37.040Z,1018.8
2022-11-14T03:24:53.223Z,1018.9
2022-11-14T03:26:09.402Z,1018.9
2022-11-14T03:27:25.604Z,1018.8
2022-11-14T03:28:41.496Z,1018.9
2022-11-14T03:29:56.683Z,1018.9
2022-11-14T03:31:13.179Z,1018.8
2022-11-14T03:32:29.366Z,1018.9
2022-11-14T03:33:45.257Z,1018.9
2022-11-14T03:35:01.454Z,1018.9
2022-11-14T03:36:17.943Z,1018.8
2022-11-14T03:37:33.828Z,1018.8
2022-11-14T03:38:50.325Z,1018.8
2022-11-14T03:40:06.208Z,1018.8
2022-11-14T03:41:22.382Z,1018.7
2022-11-14T03:42:38.884Z,1018.7
2022-11-14T03:43:55.080Z,1018.7
2022-11-14T03:45:10.948Z,1018.7
2022-11-14T03:46:26.465Z,1018.7
2022-11-14T03:47:42.652Z,1018.7
2022-11-14T03:48:58.854Z,1018.7
2022-11-14T03:50:15.034Z,1018.6
2022-11-14T03:51:31.226Z,1018.6
2022-11-14T03:52:47.101Z,1018.6
2022-11-14T03:54:03.595Z,1018.6
2022-11-14T03:55:19.795Z,1018.5
2022-11-14T03:56:35.982Z,1018.6
2022-11-14T03:57:52.173Z,1018.6
2022-11-14T03:59:08.051Z,1018.6
2022-11-14T04:00:24.243Z,1018.6
2022-11-14T04:01:40.733Z,1018.5
2022-11-14T04:02:55.946Z,1018.5
2022-11-14T04:04:12.124Z,1018.6
2022-11-14T04:05:28.007Z,1018.5
2022-11-14T04:06:44.503Z,1018.5
2022-11-14T04:08:00.380Z,1018.6
2022-11-14T04:09:16.889Z,1018.5
2022-11-14T04:10:33.081Z,1018.5
2022-11-14T04:11:49.277Z,1018.5
2022-11-14T04:13:05.455Z,1018.5
2022-11-14T04:14:21.655Z,1018.4
2022-11-14T04:15:37.521Z,1018.4
2022-11-14T04:16:54.020Z,1018.4
2022-11-14T04:18:10.215Z,1018.4
2022-11-14T04:19:25.095Z,1018.3
2022-11-14T04:20:41.610Z,1018.3
2022-11-14T04:21:57.802Z,1018.4
2022-11-14T04:23:13.675Z,1018.4
2022-11-14T04:24:29.851Z,1018.3
2022-11-14T04:25:46.365Z,1018.3
2022-11-14T04:27:02.562Z,1018.4
2022-11-14T04:28:18.738Z,1018.4
2022-11-14T04:29:34.936Z,1018.4
2022-11-14T04:30:51.125Z,1018.4
2022-11-14T04:32:06.981Z,1018.3
2022-11-14T04:33:23.507Z,1018.3
2022-11-14T04:34:39.677Z,1018.4
2022-11-14T04:35:54.567Z,1018.3
2022-11-14T04:37:10.757Z,1018.3
2022-11-14T04:38:27.265Z,1018.3
2022-11-14T04:39:43.129Z,1018.3
2022-11-14T04:40:59.647Z,1018.3
2022-11-14T04:42:15.519Z,1018.3
2022-11-14T04:43:32.023Z,1018.3
2022-11-14T04:44:47.891Z,1018.3
2022-11-14T04:46:04.078Z,1018.3
2022-11-14T04:47:20.266Z,1018.3
2022-11-14T04:48:36.450Z,1018.3
2022-11-14T04:49:52.969Z,1018.2
2022-11-14T04:51:09.172Z,1018.2
2022-11-14T04:52:24.367Z,1018.3
2022-11-14T04:53:40.225Z,1018.3
2022-11-14T04:54:56.751Z,1018.2
2022-11-14T04:56:12.945Z,1018.2
2022-11-14T04:57:29.134Z,1018.2
2022-11-14T04:58:45.324Z,1018.2
2022-11-14T05:00:01.503Z,1018.1
2022-11-14T05:01:17.368Z,1018.2
2022-11-14T05:02:33.564Z,1018.2
2022-11-14T05:03:50.061Z,1018.2
2022-11-14T05:05:06.252Z,1018.2
2022-11-14T05:06:22.127Z,1018.1
2022-11-14T05:07:38.635Z,1018.2
2022-11-14T05:08:53.521Z,1018.2
2022-11-14T05:10:09.706Z,1018.2
2022-11-14T05:11:26.227Z,1018.1
2022-11-14T05:12:42.410Z,1018.1
2022-11-14T05:13:58.593Z,1018.2
2022-11-14T05:15:14.457Z,1018.1
2022-11-14T05:16:30.639Z,1018.2
2022-11-14T05:17:47.160Z,1018.2
2022-11-14T05:19:03.355Z,1018.1
2022-11-14T05:20:19.538Z,1018.1
2022-11-14T05:21:35.726Z,1018.1
2022-11-14T05:22:51.932Z,1018.1
2022-11-14T05:24:08.106Z,1018.1
2022-11-14T05:25:23.326Z,1018
2022-11-14T05:26:39.509Z,1018.1
2022-11-14T05:27:55.366Z,1018.1
2022-11-14T05:29:11.875Z,1018.1
2022-11-14T05:30:28.069Z,1018.1
2022-11-14T05:31:43.915Z,1018.1
2022-11-14T05:33:00.445Z,1018.1
2022-11-14T05:34:16.627Z,1018.1
2022-11-14T05:35:32.814Z,1018.1
2022-11-14T05:36:49.006Z,1018.1
2022-11-14T05:38:05.195Z,1018.1
2022-11-14T05:39:21.381Z,1018.1
2022-11-14T05:40:37.220Z,1018.1
2022-11-14T05:41:52.772Z,1018.1
2022-11-14T05:43:08.964Z,1018.2
2022-11-14T05:44:24.801Z,1018.1
2022-11-14T05:45:41.321Z,1018.1
2022-11-14T05:46:57.516Z,1018.1
2022-11-14T05:48:13.373Z,1018.1
2022-11-14T05:49:28.914Z,1018.1
2022-11-14T05:50:45.107Z,1018
2022-11-14T05:52:01.280Z,1018.1
2022-11-14T05:53:17.132Z,1018
2022-11-14T05:54:33.316Z,1018
2022-11-14T05:55:49.844Z,1018
2022-11-14T05:57:06.049Z,1018
2022-11-14T05:58:22.221Z,1017.9
2022-11-14T05:59:38.422Z,1018
2022-11-14T06:00:54.250Z,1018
2022-11-14T06:02:10.455Z,1018
2022-11-14T06:03:26.966Z,1017.9
2022-11-14T06:04:43.156Z,1018
2022-11-14T06:05:58.374Z,1018
2022-11-14T06:07:14.556Z,1017.9
2022-11-14T06:08:30.390Z,1017.9
2022-11-14T06:09:46.581Z,1017.9
2022-11-14T06:11:03.108Z,1017.8
2022-11-14T06:12:18.951Z,1017.9
2022-11-14T06:13:35.494Z,1017.8
2022-11-14T06:14:51.324Z,1017.9
2022-11-14T06:16:07.861Z,1017.8
2022-11-14T06:17:24.051Z,1017.8
2022-11-14T06:18:39.886Z,1017.8
2022-11-14T06:19:56.073Z,1017.8
2022-11-14T06:21:12.620Z,1017.8
2022-11-14T06:22:27.465Z,1017.8
2022-11-14T06:23:44.014Z,1017.9
2022-11-14T06:25:00.191Z,1017.9
2022-11-14T06:26:16.384Z,1017.9
2022-11-14T06:27:32.225Z,1017.9
2022-11-14T06:28:48.745Z,1017.9
2022-11-14T06:30:04.937Z,1017.9
2022-11-14T06:31:20.774Z,1017.9
2022-11-14T06:32:36.977Z,1017.8
2022-11-14T06:33:53.509Z,1017.9
2022-11-14T06:35:09.349Z,1017.8
2022-11-14T06:36:25.886Z,1017.8
2022-11-14T06:37:42.065Z,1017.9
2022-11-14T06:38:56.913Z,1017.9
2022-11-14T06:40:13.117Z,1017.9
2022-11-14T06:41:29.638Z,1017.9
2022-11-14T06:42:45.478Z,1017.9
2022-11-14T06:44:01.675Z,1017.9
2022-11-14T06:45:18.197Z,1017.9
2022-11-14T06:46:34.388Z,1017.9
2022-11-14T06:47:50.574Z,1017.9
2022-11-14T06:49:06.774Z,1017.9
2022-11-14T06:50:22.950Z,1017.9
2022-11-14T06:51:38.781Z,1017.9
2022-11-14T06:52:55.322Z,1017.9
2022-11-14T06:54:11.514Z,1017.9
2022-11-14T06:55:26.714Z,1018
2022-11-14T06:56:42.552Z,1017.9
2022-11-14T06:57:59.089Z,1018
2022-11-14T06:59:15.286Z,1018
2022-11-14T07:00:31.109Z,1018
2022-11-14T07:01:47.655Z,1018
2022-11-14T07:03:03.486Z,1018
2022-11-14T07:04:19.675Z,1018
2022-11-14T07:05:35.875Z,1017.9
2022-11-14T07:06:52.406Z,1017.9
2022-11-14T07:08:08.594Z,1017.9
2022-11-14T07:09:24.432Z,1017.9
2022-11-14T07:10:40.969Z,1018
2022-11-14T07:11:56.177Z,1018
2022-11-14T07:13:12.361Z,1017.9
2022-11-14T07:14:28.192Z,1018
2022-11-14T07:15:44.732Z,1017.9
2022-11-14T07:17:00.931Z,1018
2022-11-14T07:18:17.108Z,1018
2022-11-14T07:19:32.933Z,1017.9
2022-11-14T07:20:49.494Z,1017.9
2022-11-14T07:22:05.318Z,1018
2022-11-14T07:23:21.866Z,1017.9
2022-11-14T07:24:38.039Z,1017.9
2022-11-14T07:25:53.882Z,1017.9
2022-11-14T07:27:10.062Z,1017.9
2022-11-14T07:28:25.628Z,1017.9
2022-11-14T07:29:41.449Z,1017.9
2022-11-14T07:30:57.633Z,1017.9
2022-11-14T07:32:13.833Z,1017.8
2022-11-14T07:33:30.005Z,1017.8
2022-11-14T07:34:46.205Z,1017.9
2022-11-14T07:36:02.397Z,1017.8
2022-11-14T07:37:18.944Z,1017.8
2022-11-14T07:38:35.128Z,1017.9
2022-11-14T07:39:50.940Z,1017.9
2022-11-14T07:41:07.145Z,1017.9
2022-11-14T07:42:23.318Z,1017.9
2022-11-14T07:43:39.867Z,1017.9
2022-11-14T07:44:54.720Z,1017.9
2022-11-14T07:46:10.892Z,1017.8
2022-11-14T07:47:27.444Z,1017.8
2022-11-14T07:48:43.277Z,1017.9
2022-11-14T07:49:59.460Z,1017.9
2022-11-14T07:51:15.655Z,1017.9
2022-11-14T07:52:31.830Z,1017.8
2022-11-14T07:53:48.396Z,1017.8
2022-11-14T07:55:04.204Z,1017.8
2022-11-14T07:56:20.768Z,1017.8
2022-11-14T07:57:36.581Z,1017.8
2022-11-14T07:58:53.137Z,1017.9
2022-11-14T08:00:09.324Z,1017.9
2022-11-14T08:01:24.530Z,1017.9
2022-11-14T08:02:40.345Z,1017.9
2022-11-14T08:03:56.528Z,1017.8
2022-11-14T08:05:13.088Z,1017.8
2022-11-14T08:06:29.287Z,1017.8
2022-11-14T08:07:45.459Z,1017.8
2022-11-14T08:09:01.291Z,1017.7
2022-11-14T08:10:17.838Z,1017.6
2022-11-14T08:11:33.649Z,1017.7
2022-11-14T08:12:49.847Z,1017.7
2022-11-14T08:14:06.399Z,1017.7
2022-11-14T08:15:22.591Z,1017.7
2022-11-14T08:16:38.784Z,1017.7
2022-11-14T08:17:53.991Z,1017.8
2022-11-14T08:19:09.788Z,1017.7
2022-11-14T08:20:26.365Z,1017.7
2022-11-14T08:21:42.552Z,1017.7
2022-11-14T08:22:58.728Z,1017.7
2022-11-14T08:24:14.925Z,1017.7
2022-11-14T08:25:30.726Z,1017.7
2022-11-14T08:26:47.302Z,1017.7
2022-11-14T08:28:03.488Z,1017.7
2022-11-14T08:29:19.662Z,1017.7
2022-11-14T08:30:35.852Z,1017.7
2022-11-14T08:31:52.034Z,1017.6
2022-11-14T08:33:07.844Z,1017.7
2022-11-14T08:34:23.046Z,1017.7
2022-11-14T08:35:39.615Z,1017.6
2022-11-14T08:36:55.424Z,1017.6
2022-11-14T08:38:11.620Z,1017.6
2022-11-14T08:39:27.810Z,1017.5
2022-11-14T08:40:44.371Z,1017.5
2022-11-14T08:42:00.185Z,1017.5
2022-11-14T08:43:16.744Z,1017.6
2022-11-14T08:44:32.925Z,1017.6
2022-11-14T08:45:49.125Z,1017.6
2022-11-14T08:47:04.927Z,1017.6
2022-11-14T08:48:21.496Z,1017.6
2022-11-14T08:49:37.305Z,1017.6
2022-11-14T08:50:53.876Z,1017.6
2022-11-14T08:52:09.080Z,1017.5
2022-11-14T08:53:24.877Z,1017.6
2022-11-14T08:54:41.058Z,1017.5
2022-11-14T08:55:57.637Z,1017.4
2022-11-14T08:57:13.447Z,1017.5
2022-11-14T08:58:30.014Z,1017.6
2022-11-14T08:59:45.810Z,1017.6
2022-11-14T09:01:02.379Z,1017.6
2022-11-14T09:02:18.579Z,1017.5
2022-11-14T09:03:34.381Z,1017.5
2022-11-14T09:04:50.937Z,1017.5
2022-11-14T09:06:06.745Z,1017.5
2022-11-14T09:07:23.322Z,1017.4
2022-11-14T09:08:38.515Z,1017.5
2022-11-14T09:09:54.320Z,1017.5
2022-11-14T09:11:10.892Z,1017.4
2022-11-14T09:12:26.689Z,1017.4
2022-11-14T09:13:43.269Z,1017.4
2022-11-14T09:14:59.460Z,1017.4
2022-11-14T09:16:15.000Z,1017.4
2022-11-14T09:17:31.446Z,1017.4
2022-11-14T09:18:48.029Z,1017.4
2022-11-14T09:20:03.811Z,1017.3
2022-11-14T09:21:20.012Z,1017.4
2022-11-14T09:22:36.593Z,1017.3
2022-11-14T09:23:52.762Z,1017.3
2022-11-14T09:25:07.977Z,1017.3
2022-11-14T09:26:24.169Z,1017.4
2022-11-14T09:27:39.956Z,1017.3
2022-11-14T09:28:56.138Z,1017.4
2022-11-14T09:30:12.724Z,1017.3
2022-11-14T09:31:28.915Z,1017.3
2022-11-14T09:32:44.715Z,1017.3
2022-11-14T09:34:01.289Z,1017.3
2022-11-14T09:35:17.075Z,1017.2
2022-11-14T09:36:33.661Z,1017.3
2022-11-14T09:37:49.840Z,1017.3
2022-11-14T09:39:06.041Z,1017.3
2022-11-14T09:40:21.830Z,1017.3
2022-11-14T09:41:37.028Z,1017.3
2022-11-14T09:42:53.211Z,1017.3
2022-11-14T09:44:09.807Z,1017.2
2022-11-14T09:45:25.993Z,1017.2
2022-11-14T09:46:41.785Z,1017.3
2022-11-14T09:47:58.368Z,1017.3
2022-11-14T09:49:14.546Z,1017.2
2022-11-14T09:50:30.349Z,1017.3
2022-11-14T09:51:46.914Z,1017.3
2022-11-14T09:53:03.107Z,1017.3
2022-11-14T09:54:18.911Z,1017.3
2022-11-14T09:55:35.482Z,1017.2
2022-11-14T09:56:51.675Z,1017.1
2022-11-14T09:58:06.471Z,1017.1
2022-11-14T09:59:23.057Z,1017.1
2022-11-14T10:00:39.252Z,1017.1
2022-11-14T10:01:55.035Z,1017.1
2022-11-14T10:03:11.624Z,1017.1
2022-11-14T10:04:26.832Z,1017
2022-11-14T10:05:42.628Z,1016.9
2022-11-14T10:06:58.799Z,1016.9
2022-11-14T10:08:15.005Z,1016.9
2022-11-14T10:09:31.582Z,1016.9
2022-11-14T10:10:47.367Z,1016.9
2022-11-14T10:12:03.561Z,1016.9
2022-11-14T10:13:19.753Z,1016.9
2022-11-14T10:14:36.335Z,1016.7
2022-11-14T10:15:52.510Z,1016.7
2022-11-14T10:17:08.711Z,1016.7
2022-11-14T10:18:24.890Z,1016.7
2022-11-14T10:19:40.683Z,1016.8
2022-11-14T10:20:55.872Z,1016.8
2022-11-14T10:22:12.478Z,1016.8
2022-11-14T10:23:28.248Z,1016.9
2022-11-14T10:24:44.849Z,1016.8
2022-11-14T10:26:00.626Z,1016.8
2022-11-14T10:27:16.826Z,1016.8
2022-11-14T10:28:33.003Z,1016.8
2022-11-14T10:29:49.192Z,1016.8
2022-11-14T10:31:05.778Z,1016.8
2022-11-14T10:32:21.557Z,1016.7
2022-11-14T10:33:38.150Z,1016.8
2022-11-14T10:34:53.930Z,1016.8
2022-11-14T10:36:10.133Z,1016.8
2022-11-14T10:37:25.737Z,1016.7
2022-11-14T10:38:41.514Z,1016.7
2022-11-14T10:39:58.104Z,1016.8
2022-11-14T10:41:14.304Z,1016.7
2022-11-14T10:42:30.490Z,1016.6
2022-11-14T10:43:46.260Z,1016.7
2022-11-14T10:45:02.445Z,1016.7
2022-11-14T10:46:19.046Z,1016.6
2022-11-14T10:47:35.240Z,1016.6
2022-11-14T10:48:51.421Z,1016.5
2022-11-14T10:50:07.606Z,1016.5
2022-11-14T10:51:23.391Z,1016.5
2022-11-14T10:52:39.980Z,1016.5
2022-11-14T10:53:54.770Z,1016.4
2022-11-14T10:55:10.953Z,1016.4
2022-11-14T10:57:43.333Z,1016.4
2022-11-14T10:58:59.515Z,1016.4
2022-11-14T11:00:16.119Z,1016.3
2022-11-14T11:01:32.303Z,1016.3
2022-11-14T11:02:48.490Z,1016.3
2022-11-14T11:04:04.273Z,1016.3
2022-11-14T11:05:20.874Z,1016.2
2022-11-14T11:06:36.646Z,1016.2
2022-11-14T11:07:53.244Z,1016.3
2022-11-14T11:09:09.441Z,1016.3
2022-11-14T11:10:24.219Z,1016.2
2022-11-14T11:11:40.417Z,1016.2
2022-11-14T11:12:57.008Z,1016.2
2022-11-14T11:14:13.190Z,1016.1
2022-11-14T11:15:29.000Z,1016.2
2022-11-14T11:16:45.565Z,1016.2
2022-11-14T11:18:01.762Z,1016.1
2022-11-14T11:19:17.952Z,1016.1
2022-11-14T11:20:34.133Z,1016.1
2022-11-14T11:21:49.897Z,1016.1
2022-11-14T11:23:06.088Z,1016
2022-11-14T11:24:22.282Z,1016.1
2022-11-14T11:25:38.878Z,1016
2022-11-14T11:26:54.085Z,1016
2022-11-14T11:28:10.267Z,1016.1
2022-11-14T11:29:26.052Z,1016
2022-11-14T11:30:42.637Z,1016
2022-11-14T11:31:58.843Z,1016
2022-11-14T11:33:15.020Z,1016
2022-11-14T11:34:31.212Z,1016
2022-11-14T11:35:46.980Z,1015.9
2022-11-14T11:37:03.587Z,1015.9
2022-11-14T11:38:19.349Z,1015.9
2022-11-14T11:39:35.959Z,1015.8
2022-11-14T11:40:52.137Z,1015.7
2022-11-14T11:42:08.336Z,1015.7
2022-11-14T11:43:23.530Z,1015.6
2022-11-14T11:44:39.732Z,1015.6
2022-11-14T11:45:55.920Z,1015.6
2022-11-14T11:47:12.110Z,1015.5
2022-11-14T11:48:27.863Z,1015.6
2022-11-14T11:49:44.463Z,1015.6
2022-11-14T11:51:00.242Z,1015.6
2022-11-14T11:52:16.437Z,1015.6
2022-11-14T11:53:33.033Z,1015.7
2022-11-14T11:54:49.229Z,1015.7
2022-11-14T11:56:05.416Z,1015.7
2022-11-14T11:57:21.601Z,1015.7
2022-11-14T11:58:37.356Z,1015.6
2022-11-14T11:59:52.568Z,1015.6
2022-11-14T12:01:08.749Z,1015.5
2022-11-14T12:02:24.931Z,1015.5
2022-11-14T12:03:41.545Z,1015.5
2022-11-14T12:04:57.746Z,1015.5
2022-11-14T12:06:13.490Z,1015.6
2022-11-14T12:07:29.682Z,1015.5
2022-11-14T12:08:45.877Z,1015.5
2022-11-14T12:10:02.496Z,1015.5
2022-11-14T12:11:18.671Z,1015.5
2022-11-14T12:12:34.854Z,1015.5
2022-11-14T12:13:50.621Z,1015.5
2022-11-14T12:15:06.811Z,1015.5
2022-11-14T12:16:22.437Z,1015.6
2022-11-14T12:17:38.627Z,1015.5
2022-11-14T12:18:54.812Z,1015.5
2022-11-14T12:20:11.007Z,1015.6
2022-11-14T12:21:26.773Z,1015.5
2022-11-14T12:22:42.952Z,1015.5
2022-11-14T12:23:59.562Z,1015.5
2022-11-14T12:25:15.749Z,1015.5
2022-11-14T12:26:31.505Z,1015.5
2022-11-14T12:27:47.702Z,1015.6
2022-11-14T12:29:04.305Z,1015.5
2022-11-14T12:30:20.070Z,1015.5
2022-11-14T12:31:36.678Z,1015.4
2022-11-14T12:32:51.884Z,1015.5
2022-11-14T12:34:08.085Z,1015.5
2022-11-14T12:35:24.264Z,1015.5
2022-11-14T12:36:40.449Z,1015.5
2022-11-14T12:37:56.206Z,1015.5
2022-11-14T12:39:12.391Z,1015.5
2022-11-14T12:40:29.019Z,1015.5
2022-11-14T12:41:45.196Z,1015.5
2022-11-14T12:43:01.384Z,1015.4
2022-11-14T12:44:17.577Z,1015.4
2022-11-14T12:45:33.769Z,1015.4
2022-11-14T12:46:49.948Z,1015.4
2022-11-14T12:48:06.147Z,1015.4
2022-11-14T12:49:21.334Z,1015.4
2022-11-14T12:50:37.527Z,1015.4
2022-11-14T12:51:53.290Z,1015.4
2022-11-14T12:53:09.468Z,1015.4
2022-11-14T12:54:26.093Z,1015.4
2022-11-14T12:55:42.267Z,1015.4
2022-11-14T12:56:58.455Z,1015.3
2022-11-14T12:58:14.220Z,1015.3
2022-11-14T12:59:30.841Z,1015.3
2022-11-14T13:00:46.598Z,1015.3
2022-11-14T13:02:03.206Z,1015.4
2022-11-14T13:03:18.958Z,1015.3
2022-11-14T13:04:35.155Z,1015.4
2022-11-14T13:05:50.789Z,1015.3
2022-11-14T13:07:06.544Z,1015.3
2022-11-14T13:08:22.728Z,1015.3
2022-11-14T13:09:39.344Z,1015.4
2022-11-14T13:10:55.537Z,1015.3
2022-11-14T13:12:11.723Z,1015.3
2022-11-14T13:13:27.924Z,1015.3
2022-11-14T13:14:43.662Z,1015.2
2022-11-14T13:15:59.851Z,1015.3
2022-11-14T13:17:16.047Z,1015.3
2022-11-14T13:18:32.671Z,1015.3
2022-11-14T13:19:48.409Z,1015.2
2022-11-14T13:21:05.033Z,1015.2
2022-11-14T13:22:20.248Z,1015.2
2022-11-14T13:23:36.434Z,1015.3
2022-11-14T13:24:52.173Z,1015.3
2022-11-14T13:26:08.798Z,1015.3
2022-11-14T13:27:24.992Z,1015.3
2022-11-14T13:28:41.172Z,1015.3
2022-11-14T13:29:56.913Z,1015.2
2022-11-14T13:31:13.106Z,1015.3
2022-11-14T13:32:29.743Z,1015.2
2022-11-14T13:33:45.931Z,1015.2
2022-11-14T13:35:02.124Z,1015.2
2022-11-14T13:36:18.297Z,1015.2
2022-11-14T13:37:34.484Z,1015.1
2022-11-14T13:38:49.253Z,1015.2
2022-11-14T13:40:05.446Z,1015.2
2022-11-14T13:41:21.619Z,1015.2
2022-11-14T13:42:37.804Z,1015.2
2022-11-14T13:43:54.440Z,1015.1
2022-11-14T13:45:10.630Z,1015.1
2022-11-14T13:46:26.824Z,1015.1
2022-11-14T13:47:43.010Z,1015.1
2022-11-14T13:48:59.194Z,1015.1
2022-11-14T13:50:15.380Z,1015.1
2022-11-14T13:51:31.575Z,1015
2022-11-14T13:52:47.757Z,1015.1
2022-11-14T13:54:03.935Z,1015.1
2022-11-14T13:55:18.692Z,1015
2022-11-14T13:56:35.332Z,1015
2022-11-14T13:57:51.510Z,1015
2022-11-14T13:59:07.701Z,1015
2022-11-14T14:00:23.893Z,1014.9
2022-11-14T14:01:39.638Z,1015
2022-11-14T14:02:55.811Z,1015
2022-11-14T14:04:12.460Z,1015
2022-11-14T14:05:28.644Z,1015
2022-11-14T14:06:44.835Z,1015
2022-11-14T14:08:00.559Z,1015
2022-11-14T14:09:16.750Z,1015
2022-11-14T14:10:33.387Z,1015
2022-11-14T14:11:48.593Z,1015
2022-11-14T14:13:04.772Z,1015
2022-11-14T14:14:20.526Z,1014.9
2022-11-14T14:15:37.145Z,1014.9
2022-11-14T14:16:52.898Z,1014.9
2022-11-14T14:18:09.074Z,1014.9
2022-11-14T14:19:24.742Z,1014.9
2022-11-14T14:20:40.467Z,1014.8
2022-11-14T14:21:57.109Z,1014.8
2022-11-14T14:23:13.300Z,1014.8
2022-11-14T14:24:29.032Z,1014.9
2022-11-14T14:25:45.675Z,1014.8
2022-11-14T14:27:01.863Z,1014.8
2022-11-14T14:28:18.044Z,1014.8
2022-11-14T14:29:33.772Z,1014.8
2022-11-14T14:30:50.420Z,1014.8
2022-11-14T14:32:06.602Z,1014.7
2022-11-14T14:33:22.336Z,1014.7
2022-11-14T14:34:38.976Z,1014.8
2022-11-14T14:35:54.184Z,1014.7
2022-11-14T14:37:10.368Z,1014.7
2022-11-14T14:38:26.572Z,1014.7
2022-11-14T14:39:42.302Z,1014.7
2022-11-14T14:40:58.475Z,1014.6
2022-11-14T14:42:15.121Z,1014.7
2022-11-14T14:43:31.320Z,1014.7
2022-11-14T14:44:47.052Z,1014.7
2022-11-14T14:46:03.220Z,1014.6
2022-11-14T14:47:19.419Z,1014.6
2022-11-14T14:48:36.069Z,1014.6
2022-11-14T14:49:52.252Z,1014.5
2022-11-14T14:51:08.431Z,1014.6
2022-11-14T14:52:23.171Z,1014.6
2022-11-14T14:53:39.827Z,1014.6
2022-11-14T14:54:55.546Z,1014.5
2022-11-14T14:56:11.730Z,1014.5
2022-11-14T14:57:28.400Z,1014.5
2022-11-14T14:58:44.127Z,1014.5
2022-11-14T15:00:00.777Z,1014.6
2022-11-14T15:01:16.496Z,1014.5
2022-11-14T15:02:33.137Z,1014.5
2022-11-14T15:03:48.870Z,1014.5
2022-11-14T15:05:05.523Z,1014.5
2022-11-14T15:06:21.241Z,1014.4
2022-11-14T15:07:37.898Z,1014.5
2022-11-14T15:08:52.648Z,1014.5
2022-11-14T15:10:09.296Z,1014.5
2022-11-14T15:11:25.010Z,1014.5
2022-11-14T15:12:41.678Z,1014.5
2022-11-14T15:13:57.856Z,1014.5
2022-11-14T15:15:13.592Z,1014.5
2022-11-14T15:16:30.241Z,1014.5
2022-11-14T15:17:45.964Z,1014.5
2022-11-14T15:19:02.153Z,1014.5
2022-11-14T15:20:18.330Z,1014.5
2022-11-14T15:21:34.993Z,1014.5
2022-11-14T15:22:51.184Z,1014.5
2022-11-14T15:24:06.911Z,1014.5
2022-11-14T15:25:22.113Z,1014.5
2022-11-14T15:26:38.289Z,1014.5
2022-11-14T15:27:54.955Z,1014.5
2022-11-14T15:29:11.147Z,1014.5
2022-11-14T15:30:26.866Z,1014.5
2022-11-14T15:31:43.049Z,1014.5
2022-11-14T15:32:59.240Z,1014.5
2022-11-14T15:34:15.421Z,1014.5
2022-11-14T15:35:32.092Z,1014.5
2022-11-14T15:36:47.803Z,1014.5
2022-11-14T15:38:04.455Z,1014.4
2022-11-14T15:39:20.660Z,1014.4
2022-11-14T15:40:36.371Z,1014.4
2022-11-14T15:41:52.052Z,1014.4
2022-11-14T15:43:08.227Z,1014.3
2022-11-14T15:44:24.432Z,1014.4
2022-11-14T15:45:40.609Z,1014.4
2022-11-14T15:46:56.791Z,1014.3
2022-11-14T15:48:12.988Z,1014.4
2022-11-14T15:49:28.696Z,1014.4
2022-11-14T15:50:45.357Z,1014.4
2022-11-14T15:52:01.552Z,1014.4
2022-11-14T15:53:17.735Z,1014.4
2022-11-14T15:54:33.450Z,1014.3
2022-11-14T15:55:49.647Z,1014.3